Time;durP1;ratioP1;P1;durP2;ratioP2;P2;SDS_P1;SDS_P2;PMS_P1;PMS_P2;Temp;Humidity;BMP_temperature;BMP_pressure;BME280_temperature;BME280_humidity;BME280_pressure;Samples;Min_cycle;Max_cycle;Signal;HPM_P1;HPM_P2
2021/12/14 00:01:43;;;;;;;10.52;6.38;;;;;;;7.83;76.48;100661.94;4973359;28;20092;-74
2021/12/14 00:04:24;;;;;;;7.72;6.30;;;;;;;7.86;76.23;100667.13;4990671;28;20061;-76
2021/12/14 00:06:51;;;;;;;10.23;6.90;;;;;;;7.83;76.69;100664.56;4989217;28;20038;-76
2021/12/14 00:09:30;;;;;;;9.13;7.32;;;;;;;7.82;76.34;100668.94;4972644;28;20038;-75
2021/12/14 00:15:08;;;;;;;8.77;6.75;;;;;;;7.85;76.24;100666.25;4947840;28;20078;-75
2021/12/14 00:17:46;;;;;;;11.20;7.22;;;;;;;7.88;76.27;100668.81;4982971;28;20108;-76
2021/12/14 00:20:40;;;;;;;10.77;7.93;;;;;;;7.88;76.56;100666.19;4990164;28;20070;-77
2021/12/14 00:25:38;;;;;;;10.30;7.63;;;;;;;7.86;76.71;100681.09;4991736;28;20490;-77
2021/12/14 00:28:29;;;;;;;11.50;8.32;;;;;;;7.89;76.09;100691.53;4991503;28;20057;-77
2021/12/14 00:30:57;;;;;;;11.63;8.73;;;;;;;7.79;77.26;100690.03;4989866;28;20039;-78
2021/12/14 00:33:30;;;;;;;11.60;8.70;;;;;;;7.80;76.96;100688.25;4973254;28;20038;-77
2021/12/14 00:35:56;;;;;;;11.18;7.68;;;;;;;7.79;76.69;100692.66;4971852;28;20042;-78
2021/12/14 00:38:22;;;;;;;11.88;8.88;;;;;;;7.79;76.75;100681.28;4971213;28;20046;-76
2021/12/14 00:40:53;;;;;;;11.63;7.85;;;;;;;7.79;76.70;100676.91;4989846;28;20061;-77
2021/12/14 00:43:19;;;;;;;12.23;8.30;;;;;;;7.78;76.36;100676.91;4972143;28;20027;-76
2021/12/14 00:45:44;;;;;;;11.40;8.30;;;;;;;7.76;76.29;100669.09;4971942;28;20038;-75
2021/12/14 00:48:11;;;;;;;13.73;9.15;;;;;;;7.75;76.25;100656.84;4989742;28;20033;-79
2021/12/14 00:50:42;;;;;;;15.60;9.30;;;;;;;7.72;77.13;100649.06;4989583;28;20042;-76
2021/12/14 00:53:07;;;;;;;13.02;8.10;;;;;;;7.69;77.04;100647.38;4987112;28;20505;-76
2021/12/14 00:55:39;;;;;;;11.40;8.77;;;;;;;7.71;76.86;100657.84;4973410;28;20034;-78
2021/12/14 00:58:05;;;;;;;12.45;8.75;;;;;;;7.76;77.24;100669.09;4988594;28;20034;-76
2021/12/14 01:00:36;;;;;;;10.18;7.70;;;;;;;7.75;76.82;100685.72;4991937;28;20443;-77
2021/12/14 01:03:03;;;;;;;13.20;8.95;;;;;;;7.73;76.63;100680.53;4989536;28;20038;-76
2021/12/14 01:05:33;;;;;;;13.25;9.20;;;;;;;7.73;76.88;100679.69;4989153;28;20480;-78
2021/12/14 01:08:00;;;;;;;10.93;8.32;;;;;;;7.70;76.99;100663.97;4988834;28;20049;-76
2021/12/14 01:10:33;;;;;;;14.07;9.50;;;;;;;7.69;77.16;100654.38;4971433;28;20510;-77
2021/12/14 01:13:04;;;;;;;10.63;7.93;;;;;;;7.66;77.67;100651.84;4988848;28;20057;-77
2021/12/14 01:21:10;;;;;;;9.60;7.63;;;;;;;7.65;77.30;100671.94;4988777;28;20040;-75
2021/12/14 01:23:37;;;;;;;13.50;8.77;;;;;;;7.66;77.30;100680.72;4988343;28;20405;-76
2021/12/14 01:26:11;;;;;;;14.93;10.55;;;;;;;7.65;77.74;100676.34;4989428;28;20038;-76
2021/12/14 01:28:38;;;;;;;15.23;11.00;;;;;;;7.64;77.34;100685.13;4991949;28;20053;-78
2021/12/14 01:31:18;;;;;;;14.98;9.90;;;;;;;7.63;77.63;100689.53;4995927;28;20038;-78
2021/12/14 01:33:57;;;;;;;14.50;10.38;;;;;;;7.66;77.86;100689.44;4994305;28;20045;-77
2021/12/14 01:36:48;;;;;;;18.20;12.57;;;;;;;7.64;77.79;100677.25;4971470;28;20056;-76
2021/12/14 01:42:08;;;;;;;19.50;12.30;;;;;;;7.61;77.90;100680.81;4972452;28;20528;-76
2021/12/14 01:44:40;;;;;;;18.17;12.27;;;;;;;7.61;78.35;100683.44;4988296;28;20042;-76
2021/12/14 01:47:14;;;;;;;18.88;12.05;;;;;;;7.61;78.59;100690.44;4988669;28;20146;-76
2021/12/14 01:49:40;;;;;;;21.20;13.68;;;;;;;7.59;78.37;100700.13;4972989;28;20061;-75
2021/12/14 01:52:14;;;;;;;20.45;11.50;;;;;;;7.59;78.76;100700.13;4991026;28;20039;-76
2021/12/14 01:54:44;;;;;;;16.10;11.45;;;;;;;7.58;78.42;100682.63;4992234;28;20457;-77
2021/12/14 01:57:13;;;;;;;19.90;12.80;;;;;;;7.58;78.51;100677.38;4990946;28;20475;-75
2021/12/14 01:59:42;;;;;;;17.27;11.75;;;;;;;7.54;78.71;100676.59;4993413;28;20042;-77
2021/12/14 02:04:44;;;;;;;19.35;12.95;;;;;;;7.53;78.51;100662.63;4995329;28;20453;-74
2021/12/14 02:07:13;;;;;;;18.45;11.73;;;;;;;7.55;78.61;100659.09;4971848;28;20037;-78
2021/12/14 02:09:39;;;;;;;15.85;11.73;;;;;;;7.61;78.66;100664.22;4988496;28;20038;-76
2021/12/14 02:12:13;;;;;;;16.95;11.13;;;;;;;7.61;78.56;100658.97;4971030;28;20042;-75
2021/12/14 02:14:38;;;;;;;17.65;10.82;;;;;;;7.59;78.58;100659.00;4954511;28;20406;-76
2021/12/14 02:17:08;;;;;;;19.48;12.27;;;;;;;7.57;78.42;100665.16;4987888;28;20041;-76
2021/12/14 02:19:36;;;;;;;19.13;12.05;;;;;;;7.55;78.94;100659.94;4973618;28;20041;-76
2021/12/14 02:22:04;;;;;;;18.25;12.13;;;;;;;7.56;79.03;100671.31;4991310;28;20054;-77
2021/12/14 02:24:32;;;;;;;20.77;11.45;;;;;;;7.52;79.50;100676.63;4954563;28;20556;-76
2021/12/14 02:26:59;;;;;;;24.05;13.30;;;;;;;7.52;79.23;100667.91;4988865;28;20118;-75
2021/12/14 02:29:31;;;;;;;18.98;12.90;;;;;;;7.55;79.64;100664.34;4988840;28;20042;-75
2021/12/14 02:32:25;;;;;;;21.27;13.07;;;;;;;7.52;79.62;100663.50;4988405;28;20035;-77
2021/12/14 02:35:01;;;;;;;24.10;14.75;;;;;;;7.55;79.79;100652.06;4989501;28;20215;-76
2021/12/14 02:37:51;;;;;;;20.23;12.20;;;;;;;7.55;80.01;100649.44;4978492;28;20517;-74
2021/12/14 02:40:32;;;;;;;22.92;13.80;;;;;;;7.48;80.08;100640.88;4994326;28;20050;-75
2021/12/14 02:43:00;;;;;;;24.02;12.85;;;;;;;7.41;80.62;100614.78;4999476;28;20041;-77
2021/12/14 02:45:26;;;;;;;23.35;14.48;;;;;;;7.40;81.09;100610.47;4978771;28;20045;-77
2021/12/14 02:47:51;;;;;;;24.75;15.88;;;;;;;7.39;80.83;100599.09;5000396;28;20038;-76
2021/12/14 02:50:18;;;;;;;24.42;14.65;;;;;;;7.34;81.26;100590.47;5000309;28;20034;-74
2021/12/14 02:52:44;;;;;;;23.85;13.93;;;;;;;7.32;81.69;100584.41;4996707;28;20117;-75
2021/12/14 02:55:17;;;;;;;24.23;14.88;;;;;;;7.33;81.84;100599.22;4998660;28;20089;-75
2021/12/14 02:57:46;;;;;;;31.85;17.05;;;;;;;7.35;81.69;100610.56;4999351;28;20062;-75
2021/12/14 03:00:26;;;;;;;27.45;16.67;;;;;;;7.32;81.46;100587.88;5005517;28;20114;-77
2021/12/14 03:02:52;;;;;;;22.98;14.20;;;;;;;7.27;82.06;100573.16;4999227;28;20106;-77
2021/12/14 03:05:25;;;;;;;27.40;18.02;;;;;;;7.26;82.23;100585.41;4979792;28;20034;-78
2021/12/14 03:07:54;;;;;;;28.30;15.10;;;;;;;7.26;82.37;100589.78;4961600;28;20038;-76
2021/12/14 03:10:38;;;;;;;24.52;15.05;;;;;;;7.29;82.46;100598.44;4978674;28;20065;-77
2021/12/14 03:13:09;;;;;;;28.00;15.55;;;;;;;7.30;82.49;100581.81;5003252;28;20038;-75
2021/12/14 03:15:47;;;;;;;22.50;14.10;;;;;;;7.29;82.78;100564.34;5003811;28;20034;-75
2021/12/14 03:18:15;;;;;;;23.27;12.90;;;;;;;7.28;82.34;100582.75;4982730;28;20076;-75
2021/12/14 03:20:51;;;;;;;24.27;14.50;;;;;;;7.29;82.75;100605.47;4992994;28;20035;-74
2021/12/14 03:23:20;;;;;;;20.80;13.50;;;;;;;7.29;82.56;100587.09;4992663;28;20046;-75
2021/12/14 03:25:50;;;;;;;27.60;15.50;;;;;;;7.25;82.96;100599.41;4992743;28;20039;-76
2021/12/14 03:28:18;;;;;;;23.55;14.13;;;;;;;7.21;82.75;100587.28;4974484;28;20069;-76
2021/12/14 03:30:46;;;;;;;20.60;13.27;;;;;;;7.21;83.02;100603.00;4984902;28;20070;-77
2021/12/14 03:33:18;;;;;;;23.58;14.85;;;;;;;7.16;83.03;100596.13;4968302;28;20050;-76
2021/12/14 03:35:48;;;;;;;24.23;13.75;;;;;;;7.12;83.57;100597.97;4974415;28;20075;-77
2021/12/14 03:38:28;;;;;;;26.52;15.80;;;;;;;7.11;83.72;100585.72;4993884;28;20125;-77
2021/12/14 03:41:13;;;;;;;23.52;14.13;;;;;;;7.09;83.97;100593.66;5004330;28;20483;-76
2021/12/14 03:43:45;;;;;;;29.20;15.38;;;;;;;7.07;83.76;100594.59;5006235;28;20034;-77
2021/12/14 03:46:11;;;;;;;24.95;15.32;;;;;;;7.03;84.51;100593.78;4979964;28;20030;-78
2021/12/14 03:48:38;;;;;;;25.27;13.95;;;;;;;7.02;84.65;100586.81;4993478;28;20508;-77
2021/12/14 03:51:04;;;;;;;28.60;17.63;;;;;;;7.05;84.75;100591.13;4990663;28;20053;-77
2021/12/14 03:53:30;;;;;;;24.52;15.32;;;;;;;7.10;84.60;100595.38;4990533;28;20034;-76
2021/12/14 03:55:59;;;;;;;20.90;12.90;;;;;;;7.13;84.41;100590.97;4972504;28;20056;-75
2021/12/14 03:58:35;;;;;;;27.52;16.23;;;;;;;7.04;84.64;100574.53;4990840;28;20054;-76
2021/12/14 04:01:13;;;;;;;30.30;18.00;;;;;;;7.04;84.90;100574.53;4973569;28;20046;-77
2021/12/14 04:03:39;;;;;;;29.67;15.80;;;;;;;7.02;84.87;100568.47;4990223;28;20031;-75
2021/12/14 04:06:05;;;;;;;20.83;13.52;;;;;;;7.03;84.99;100570.19;4955926;28;20043;-76
2021/12/14 04:08:32;;;;;;;28.33;13.70;;;;;;;7.07;84.87;100563.13;4996645;28;20044;-77
2021/12/14 04:11:02;;;;;;;21.48;13.43;;;;;;;7.08;84.92;100563.06;5003264;28;20081;-77
2021/12/14 04:13:31;;;;;;;21.85;12.77;;;;;;;7.08;84.85;100567.47;4975869;28;20053;-76
2021/12/14 04:15:57;;;;;;;23.50;12.93;;;;;;;7.10;85.20;100563.91;5009143;28;20117;-76
2021/12/14 04:18:24;;;;;;;26.58;13.23;;;;;;;7.11;85.04;100567.38;4992007;28;20087;-77
2021/12/14 04:20:52;;;;;;;23.00;13.82;;;;;;;7.13;84.96;100575.22;5010719;28;20397;-78
2021/12/14 04:23:25;;;;;;;23.02;14.98;;;;;;;7.14;85.11;100577.81;4995600;28;20406;-77
2021/12/14 04:25:53;;;;;;;21.50;13.10;;;;;;;7.10;85.37;100584.88;5015343;28;20034;-76
2021/12/14 04:28:22;;;;;;;21.52;14.13;;;;;;;7.08;85.14;100586.66;5001632;28;20038;-75
2021/12/14 04:30:48;;;;;;;20.23;13.95;;;;;;;7.12;85.49;100599.72;5015609;28;20068;-78
2021/12/14 04:33:22;;;;;;;21.88;13.75;;;;;;;7.14;85.13;100597.91;5011560;28;20030;-76
2021/12/14 04:35:48;;;;;;;20.23;12.55;;;;;;;7.16;85.05;100598.75;4991456;28;20371;-77
2021/12/14 04:38:21;;;;;;;21.88;12.13;;;;;;;7.17;85.04;100596.09;5007783;28;20044;-75
2021/12/14 04:52:05;;;;;;;22.83;11.98;;;;;;;7.18;85.23;100628.44;4970136;28;20414;-76
2021/12/14 04:54:48;;;;;;;19.08;12.20;;;;;;;7.19;85.19;100628.41;4953835;28;20030;-76
2021/12/14 04:57:43;;;;;;;17.90;12.02;;;;;;;7.22;85.62;100636.19;4969302;28;20038;-76
2021/12/14 05:00:17;;;;;;;17.92;11.25;;;;;;;7.23;84.92;100637.91;4962801;28;20065;-77
2021/12/14 05:02:43;;;;;;;18.15;11.02;;;;;;;7.17;84.85;100645.94;4951663;28;20034;-76
2021/12/14 05:05:15;;;;;;;17.40;10.63;;;;;;;7.17;84.87;100652.94;4968779;28;20038;-77
2021/12/14 05:09:19;;;;;;;16.30;10.13;;;;;;;7.16;84.75;100645.94;4969928;28;20380;-77
2021/12/14 05:10:35;;;;;;;16.90;9.40;;;;;;;7.15;84.76;100652.97;4970184;28;20042;-77
2021/12/14 05:13:01;;;;;;;15.68;8.65;;;;;;;7.13;84.61;100641.63;4971776;28;20030;-77
2021/12/14 05:15:26;;;;;;;11.85;7.80;;;;;;;7.09;84.86;100632.13;4954595;28;20129;-76
2021/12/14 05:17:52;;;;;;;11.63;8.35;;;;;;;7.07;84.76;100637.38;4955678;28;20478;-75
2021/12/14 05:20:17;;;;;;;14.95;8.32;;;;;;;7.02;85.10;100634.00;4969621;28;20411;-77
2021/12/14 05:22:44;;;;;;;10.50;7.50;;;;;;;7.03;84.96;100637.47;4969621;28;20069;-78
2021/12/14 05:25:13;;;;;;;14.77;9.30;;;;;;;7.01;84.86;100636.66;4969146;28;20042;-77
2021/12/14 05:27:48;;;;;;;10.60;8.27;;;;;;;6.96;85.54;100641.97;4969345;28;20039;-77
2021/12/14 05:30:30;;;;;;;14.50;9.85;;;;;;;6.97;85.47;100633.25;4936884;28;20467;-76
2021/12/14 05:33:08;;;;;;;11.93;7.75;;;;;;;6.97;85.43;100620.13;4968269;28;20551;-77
2021/12/14 05:35:37;;;;;;;12.15;9.27;;;;;;;6.96;85.29;100626.25;4969151;28;20042;-76
2021/12/14 05:38:04;;;;;;;12.60;8.43;;;;;;;6.96;85.76;100625.41;4969380;28;20034;-75
2021/12/14 05:43:16;;;;;;;13.73;7.75;;;;;;;6.95;85.08;100637.66;4968816;28;20050;-76
2021/12/14 05:45:45;;;;;;;10.40;7.78;;;;;;;6.96;84.93;100631.50;4967154;28;20058;-75
2021/12/14 05:48:17;;;;;;;12.55;8.93;;;;;;;6.98;84.46;100637.56;4952392;28;20114;-75
2021/12/14 05:50:46;;;;;;;12.40;8.77;;;;;;;6.97;84.66;100641.09;4968503;28;20115;-75
2021/12/14 05:53:33;;;;;;;13.35;8.38;;;;;;;6.99;84.58;100639.31;4981151;28;20034;-76
2021/12/14 05:56:01;;;;;;;10.32;7.35;;;;;;;6.98;84.51;100637.56;4972052;28;20581;-78
2021/12/14 05:58:28;;;;;;;12.63;7.85;;;;;;;6.95;84.30;100642.88;4971136;28;20053;-77
2021/12/14 06:01:06;;;;;;;10.85;7.97;;;;;;;6.93;84.28;100638.56;4989181;28;20126;-78
2021/12/14 06:03:36;;;;;;;10.88;8.55;;;;;;;6.95;84.41;100639.41;4979797;28;20054;-75
2021/12/14 06:06:03;;;;;;;10.70;8.13;;;;;;;6.94;84.09;100628.06;4988055;28;20053;-77
2021/12/14 06:08:34;;;;;;;12.10;8.25;;;;;;;6.95;84.22;100627.16;4988768;28;20038;-75
2021/12/14 06:11:01;;;;;;;16.83;9.23;;;;;;;6.97;83.78;100630.63;4986405;28;20054;-77
2021/12/14 06:13:36;;;;;;;9.85;7.50;;;;;;;6.97;83.80;100622.75;4989416;28;20035;-76
2021/12/14 06:16:01;;;;;;;10.68;7.50;;;;;;;6.96;83.55;100618.38;4988668;28;20057;-78
2021/12/14 06:18:27;;;;;;;8.75;5.95;;;;;;;6.97;83.53;100616.66;4993036;28;20406;-77
2021/12/14 06:20:52;;;;;;;9.52;6.57;;;;;;;6.96;83.07;100609.66;4993899;28;20046;-77
2021/12/14 06:23:26;;;;;;;10.00;6.20;;;;;;;6.93;83.04;100607.13;4992885;28;20132;-77
2021/12/14 06:25:52;;;;;;;11.10;6.25;;;;;;;6.95;83.25;100615.81;4991331;28;20066;-76
2021/12/14 06:28:23;;;;;;;9.57;6.30;;;;;;;6.99;82.89;100609.59;4991887;28;20050;-75
2021/12/14 06:30:48;;;;;;;8.88;6.38;;;;;;;7.03;82.52;100613.88;4992246;28;20049;-76
2021/12/14 06:33:14;;;;;;;8.73;6.60;;;;;;;7.05;82.71;100620.81;4991989;28;20399;-78
2021/12/14 06:35:47;;;;;;;9.15;7.03;;;;;;;7.06;82.21;100630.44;4958698;28;20033;-77
2021/12/14 06:38:34;;;;;;;9.90;6.65;;;;;;;7.06;81.59;100638.31;4977053;28;20045;-78
2021/12/14 06:41:11;;;;;;;6.80;4.82;;;;;;;7.06;81.85;100637.41;4994632;28;20383;-76
2021/12/14 06:43:51;;;;;;;10.95;6.88;;;;;;;7.08;82.39;100643.50;4978121;28;20041;-78
2021/12/14 06:46:23;;;;;;;18.77;12.45;;;;;;;7.05;82.48;100654.91;4992447;28;20031;-78
2021/12/14 06:48:52;;;;;;;10.30;7.25;;;;;;;7.09;82.75;100653.97;4961828;28;20096;-78
2021/12/14 06:51:24;;;;;;;9.93;6.25;;;;;;;7.12;82.00;100652.19;5000464;28;20045;-75
2021/12/14 06:53:56;;;;;;;9.32;5.93;;;;;;;7.14;81.71;100651.25;4984734;28;20434;-77
2021/12/14 06:56:25;;;;;;;11.02;6.80;;;;;;;7.14;81.74;100651.25;4991230;28;20057;-75
2021/12/14 06:58:55;;;;;;;8.40;5.07;;;;;;;7.16;81.18;100656.44;4978117;28;20030;-75
2021/12/14 07:01:25;;;;;;;10.18;5.45;;;;;;;7.17;81.46;100651.16;4976609;28;20494;-76
2021/12/14 07:03:50;;;;;;;7.60;5.03;;;;;;;7.21;80.98;100660.72;4992500;28;20038;-75
2021/12/14 07:06:30;;;;;;;7.75;5.13;;;;;;;7.25;81.17;100656.25;4992253;28;20117;-78
2021/12/14 07:09:08;;;;;;;6.85;5.20;;;;;;;7.24;80.74;100657.16;4974243;28;20553;-77
2021/12/14 07:11:34;;;;;;;7.47;4.82;;;;;;;7.22;80.76;100654.56;4959965;28;20045;-75
2021/12/14 07:14:03;;;;;;;6.47;4.97;;;;;;;7.22;80.64;100662.41;4962097;28;20035;-76
2021/12/14 07:16:33;;;;;;;7.03;4.85;;;;;;;7.22;80.47;100657.19;4971852;28;20086;-76
2021/12/14 07:19:04;;;;;;;7.65;4.90;;;;;;;7.23;80.37;100663.28;4973273;28;20407;-76
2021/12/14 07:21:45;;;;;;;8.18;5.25;;;;;;;7.24;80.42;100665.88;4991900;28;20027;-76
2021/12/14 07:24:23;;;;;;;9.40;5.78;;;;;;;7.20;80.31;100673.84;4959520;28;20046;-76
2021/12/14 07:26:49;;;;;;;13.45;7.03;;;;;;;7.12;80.40;100676.63;4999713;28;20177;-76
2021/12/14 07:29:22;;;;;;;8.55;5.40;;;;;;;7.16;80.71;100680.03;5010241;28;20054;-75
2021/12/14 07:31:48;;;;;;;8.50;5.88;;;;;;;7.19;80.34;100680.00;4992516;28;20049;-78
2021/12/14 07:34:13;;;;;;;7.72;5.80;;;;;;;7.20;79.96;100685.19;5011556;28;20389;-76
2021/12/14 07:36:39;;;;;;;8.77;6.07;;;;;;;7.13;80.16;100685.34;5014738;28;20427;-75
2021/12/14 07:39:14;;;;;;;9.52;6.72;;;;;;;7.09;80.63;100680.19;5013346;28;20045;-76
2021/12/14 07:41:45;;;;;;;12.23;8.97;;;;;;;7.10;80.94;100687.13;5010058;28;20038;-77
2021/12/14 07:44:14;;;;;;;8.50;6.57;;;;;;;7.09;80.89;100688.03;5008855;28;20037;-77
2021/12/14 07:46:52;;;;;;;11.48;6.13;;;;;;;7.10;80.63;100700.25;4991964;28;20121;-77
2021/12/14 07:49:42;;;;;;;11.38;7.30;;;;;;;7.11;81.03;100706.34;4977186;28;20061;-76
2021/12/14 07:52:07;;;;;;;9.13;7.00;;;;;;;7.13;80.96;100711.56;5010930;28;20041;-77
2021/12/14 07:54:36;;;;;;;11.38;8.48;;;;;;;7.14;80.79;100715.91;5000443;28;20038;-77
2021/12/14 07:57:08;;;;;;;9.60;7.72;;;;;;;7.06;81.15;100726.56;4965834;28;20053;-77
2021/12/14 07:59:47;;;;;;;12.20;8.60;;;;;;;7.08;81.29;100730.00;4990452;28;20122;-76
2021/12/14 08:02:23;;;;;;;10.23;7.10;;;;;;;7.08;81.55;100727.41;4991850;28;20041;-77
2021/12/14 08:04:58;;;;;;;10.45;7.72;;;;;;;7.12;81.02;100734.31;4991022;28;20192;-77
2021/12/14 08:07:33;;;;;;;11.20;9.38;;;;;;;7.13;81.22;100732.56;4972385;28;20121;-77
2021/12/14 08:10:16;;;;;;;13.77;9.57;;;;;;;7.14;81.28;100739.50;4990014;28;20511;-77
2021/12/14 08:12:47;;;;;;;11.43;9.07;;;;;;;7.15;81.46;100747.34;4990387;28;20126;-76
2021/12/14 08:15:18;;;;;;;14.13;9.38;;;;;;;7.16;81.25;100743.88;4988961;28;20117;-76
2021/12/14 08:17:47;;;;;;;12.27;8.82;;;;;;;7.19;81.39;100750.81;4989264;28;20030;-76
2021/12/14 08:20:23;;;;;;;13.35;9.73;;;;;;;7.14;81.05;100744.75;4989811;28;20510;-76
2021/12/14 08:22:48;;;;;;;16.15;10.13;;;;;;;7.14;80.91;100745.66;4991569;28;20064;-74
2021/12/14 08:25:22;;;;;;;13.95;10.20;;;;;;;7.15;81.04;100749.13;4990408;28;20034;-77
2021/12/14 08:28:00;;;;;;;13.98;9.98;;;;;;;7.16;81.62;100754.34;5001230;28;20038;-76
2021/12/14 08:30:30;;;;;;;13.10;8.88;;;;;;;7.20;81.17;100763.00;4993699;28;20038;-76
2021/12/14 08:32:56;;;;;;;13.90;9.60;;;;;;;7.21;81.23;100759.47;4978192;28;20043;-77
2021/12/14 08:35:22;;;;;;;14.82;9.35;;;;;;;7.25;81.01;100755.91;4973739;28;20045;-78
2021/12/14 08:37:53;;;;;;;14.32;8.85;;;;;;;7.22;80.95;100758.59;4990814;28;20157;-76
2021/12/14 08:40:41;;;;;;;11.27;9.48;;;;;;;7.25;80.76;100761.16;4961709;28;20037;-75
2021/12/14 08:43:22;;;;;;;12.45;9.65;;;;;;;7.25;81.10;100763.78;4971454;28;20495;-76
2021/12/14 08:45:59;;;;;;;14.75;10.20;;;;;;;7.25;80.56;100767.25;4978278;28;20105;-76
2021/12/14 08:48:38;;;;;;;14.52;9.77;;;;;;;7.23;80.61;100753.31;4960248;28;20038;-77
2021/12/14 08:51:32;;;;;;;13.73;9.15;;;;;;;7.24;80.66;100762.06;4988509;28;20054;-76
2021/12/14 08:54:13;;;;;;;14.27;8.82;;;;;;;7.28;80.16;100766.34;4940697;28;20058;-75
2021/12/14 08:56:49;;;;;;;11.68;8.70;;;;;;;7.28;80.25;100761.09;4970849;28;20042;-73
2021/12/14 08:59:14;;;;;;;13.10;8.98;;;;;;;7.31;80.29;100758.44;4989759;28;20105;-75
2021/12/14 09:01:42;;;;;;;12.20;8.23;;;;;;;7.29;80.42;100760.22;4972572;28;20035;-74
2021/12/14 09:04:24;;;;;;;10.35;7.70;;;;;;;7.33;80.14;100764.47;4988726;28;20441;-75
2021/12/14 09:06:54;;;;;;;14.50;9.02;;;;;;;7.35;79.69;100765.31;4970509;28;20154;-75
2021/12/14 09:09:22;;;;;;;10.98;8.07;;;;;;;7.36;79.70;100771.41;4971945;28;20125;-75
2021/12/14 09:11:59;;;;;;;12.25;8.35;;;;;;;7.36;80.12;100772.31;4990028;28;20038;-77
2021/12/14 09:14:25;;;;;;;9.90;7.65;;;;;;;7.35;79.77;100760.06;4970223;28;20044;-74
2021/12/14 09:16:54;;;;;;;11.77;9.25;;;;;;;7.34;79.91;100752.25;4959174;28;20038;-74
2021/12/14 09:19:34;;;;;;;10.20;8.73;;;;;;;7.32;79.66;100750.50;4978744;28;20042;-74
2021/12/14 09:22:04;;;;;;;12.35;10.10;;;;;;;7.34;79.96;100753.13;4974823;28;20681;-75
2021/12/14 09:24:31;;;;;;;11.55;9.10;;;;;;;7.34;79.73;100753.13;4983998;28;20096;-74
2021/12/14 09:27:07;;;;;;;10.80;8.02;;;;;;;7.39;80.06;100753.03;4938671;28;20145;-74
2021/12/14 09:29:34;;;;;;;12.75;9.98;;;;;;;7.41;79.58;100753.81;4976548;28;20038;-73
2021/12/14 09:32:04;;;;;;;12.02;9.13;;;;;;;7.39;79.83;100763.50;4983902;28;20043;-75
2021/12/14 09:34:33;;;;;;;14.27;8.43;;;;;;;7.41;79.68;100765.22;4984110;28;20034;-78
2021/12/14 09:36:59;;;;;;;13.65;10.30;;;;;;;7.43;79.69;100755.56;4993410;28;20044;-75
2021/12/14 09:39:32;;;;;;;11.90;9.15;;;;;;;7.45;79.06;100756.34;4979297;28;20061;-75
2021/12/14 09:42:02;;;;;;;14.38;9.10;;;;;;;7.46;79.10;100752.84;4967300;28;20027;-77
2021/12/14 09:44:31;;;;;;;13.23;9.70;;;;;;;7.44;78.99;100759.88;4982737;28;20034;-74
2021/12/14 09:46:59;;;;;;;15.52;10.80;;;;;;;7.46;78.91;100762.50;4984855;28;20113;-76
2021/12/14 09:49:26;;;;;;;12.15;9.05;;;;;;;7.53;79.40;100762.34;4983746;28;20053;-76
2021/12/14 09:52:09;;;;;;;10.23;7.85;;;;;;;7.58;78.91;100766.59;4985548;28;20066;-79
2021/12/14 09:54:35;;;;;;;10.95;8.23;;;;;;;7.64;79.04;100769.97;4972552;28;20038;-76
2021/12/14 09:57:07;;;;;;;10.07;7.82;;;;;;;7.71;78.75;100775.94;4989116;28;20315;-77
2021/12/14 09:59:33;;;;;;;14.13;8.10;;;;;;;7.73;78.73;100779.41;4972315;28;20702;-77
2021/12/14 10:02:24;;;;;;;11.88;8.35;;;;;;;7.70;78.00;100771.59;4975901;28;20057;-76
2021/12/14 10:04:57;;;;;;;11.27;8.30;;;;;;;7.70;78.08;100768.97;4994797;28;20049;-76
2021/12/14 10:07:24;;;;;;;11.00;7.88;;;;;;;7.71;78.58;100775.94;4975040;28;20041;-77
2021/12/14 10:09:52;;;;;;;12.90;8.75;;;;;;;7.77;78.77;100770.56;4973351;28;20040;-76
2021/12/14 10:15:17;;;;;;;10.80;8.63;;;;;;;7.77;78.45;100773.19;4988562;28;20470;-76
2021/12/14 10:17:44;;;;;;;10.75;8.18;;;;;;;7.81;77.97;100769.59;4988073;28;20042;-76
2021/12/14 10:20:13;;;;;;;9.45;7.88;;;;;;;7.75;78.46;100777.59;4970564;28;20034;-77
2021/12/14 10:22:39;;;;;;;11.43;7.78;;;;;;;7.79;78.61;100773.16;4961773;28;20422;-75
2021/12/14 10:25:11;;;;;;;11.50;8.60;;;;;;;7.80;78.06;100767.00;5000127;28;20042;-77
2021/12/14 10:27:38;;;;;;;10.63;8.93;;;;;;;7.81;78.59;100774.00;5009524;28;20481;-75
2021/12/14 10:30:10;;;;;;;12.10;8.02;;;;;;;7.79;78.51;100781.91;4966101;28;20077;-76
2021/12/14 10:32:36;;;;;;;10.43;7.90;;;;;;;7.82;78.17;100773.94;5010461;28;20080;-76
2021/12/14 10:35:10;;;;;;;10.63;7.55;;;;;;;7.83;77.77;100780.94;5011610;28;20037;-77
2021/12/14 10:37:59;;;;;;;8.27;6.70;;;;;;;7.81;78.29;100777.47;5010490;28;20631;-76
2021/12/14 10:43:17;;;;;;;12.23;7.53;;;;;;;7.79;77.44;100774.03;4972839;28;20476;-75
2021/12/14 10:45:50;;;;;;;11.65;8.98;;;;;;;7.76;78.40;100775.88;4967133;28;20037;-76
2021/12/14 10:48:19;;;;;;;12.82;8.70;;;;;;;7.74;77.88;100770.63;4975070;28;20379;-76
2021/12/14 10:50:48;;;;;;;11.13;8.40;;;;;;;7.79;78.82;100776.66;4992361;28;20039;-76
2021/12/14 10:53:14;;;;;;;12.07;8.63;;;;;;;7.77;78.16;100775.81;4992014;28;20129;-74
2021/12/14 10:55:44;;;;;;;10.57;7.45;;;;;;;7.80;77.96;100773.13;4991776;28;20117;-76
2021/12/14 10:58:13;;;;;;;12.25;7.75;;;;;;;7.85;78.65;100767.75;4992580;28;20039;-77
2021/12/14 11:00:51;;;;;;;10.70;7.88;;;;;;;7.88;78.12;100763.31;4959477;28;20428;-77
2021/12/14 11:03:23;;;;;;;9.32;6.95;;;;;;;7.92;78.22;100775.47;4994732;28;20026;-76
2021/12/14 11:05:53;;;;;;;12.55;9.32;;;;;;;7.92;78.22;100770.22;4983303;28;20072;-76
2021/12/14 11:08:39;;;;;;;11.75;8.60;;;;;;;7.99;78.39;100765.69;4975629;28;20080;-76
2021/12/14 11:11:21;;;;;;;11.30;7.65;;;;;;;8.06;78.08;100772.53;4992584;28;20065;-77
2021/12/14 11:13:53;;;;;;;13.27;9.07;;;;;;;8.12;77.37;100771.53;4991305;28;20053;-77
2021/12/14 11:18:08;;;;;;;14.68;9.27;;;;;;;8.14;77.51;100767.09;4992651;28;20050;-75
2021/12/14 11:19:54;;;;;;;11.65;8.48;;;;;;;8.20;77.32;100760.88;4994103;28;20038;-74
2021/12/14 11:22:28;;;;;;;12.02;8.60;;;;;;;8.23;76.96;100759.00;4994076;28;20379;-74
2021/12/14 11:24:59;;;;;;;9.98;6.97;;;;;;;8.25;77.03;100758.97;4993975;28;20047;-76
2021/12/14 11:27:32;;;;;;;9.95;7.35;;;;;;;8.30;76.91;100762.38;4967581;28;20034;-77
2021/12/14 11:30:22;;;;;;;12.70;8.57;;;;;;;8.32;77.56;100755.31;4994953;28;20039;-75
2021/12/14 11:33:07;;;;;;;9.00;7.35;;;;;;;8.35;77.08;100748.22;4995344;28;20034;-76
2021/12/14 11:35:40;;;;;;;16.40;9.13;;;;;;;8.37;77.22;100745.56;4995433;28;20581;-76
2021/12/14 11:38:21;;;;;;;13.57;9.60;;;;;;;8.37;76.50;100743.78;4980774;28;20231;-77
2021/12/14 11:40:47;;;;;;;12.05;8.48;;;;;;;8.38;77.00;100744.63;4996531;28;20034;-78
2021/12/14 11:43:17;;;;;;;11.25;8.18;;;;;;;8.41;76.44;100751.63;4997259;28;20108;-73
2021/12/14 11:45:46;;;;;;;13.25;8.48;;;;;;;8.40;76.27;100748.13;4975004;28;20035;-76
2021/12/14 11:48:12;;;;;;;11.88;8.52;;;;;;;8.45;76.85;100742.75;4991100;28;20121;-75
2021/12/14 11:50:48;;;;;;;12.32;8.65;;;;;;;8.47;76.82;100744.44;4958443;28;20441;-77
2021/12/14 11:53:20;;;;;;;15.15;8.93;;;;;;;8.48;76.58;100748.78;4980541;28;20045;-76
2021/12/14 11:55:48;;;;;;;13.70;9.77;;;;;;;8.48;76.96;100737.41;4944264;28;20447;-75
2021/12/14 11:58:17;;;;;;;18.08;11.30;;;;;;;8.48;77.00;100742.69;4971563;28;20568;-75
2021/12/14 12:00:54;;;;;;;21.60;10.23;;;;;;;8.50;77.06;100741.72;4971727;28;20047;-77
2021/12/14 12:03:23;;;;;;;18.70;13.10;;;;;;;8.53;76.28;100736.41;4970932;28;20039;-78
2021/12/14 12:06:07;;;;;;;16.08;10.18;;;;;;;8.56;75.97;100736.31;4970783;28;20030;-75
2021/12/14 12:11:20;;;;;;;12.38;9.65;;;;;;;8.63;76.22;100734.41;4989994;28;20046;-75
2021/12/14 12:13:47;;;;;;;13.18;9.18;;;;;;;8.62;75.88;100743.19;4991455;28;20038;-75
2021/12/14 12:16:23;;;;;;;16.50;9.23;;;;;;;8.57;75.59;100739.81;4971457;28;20035;-75
2021/12/14 12:19:04;;;;;;;13.40;9.98;;;;;;;8.54;75.78;100738.13;4990051;28;20131;-76
2021/12/14 12:21:31;;;;;;;15.57;10.38;;;;;;;8.53;76.26;100738.16;4990816;28;20158;-76
2021/12/14 12:23:57;;;;;;;15.18;9.18;;;;;;;8.52;76.13;100742.56;4956417;28;20121;-76
2021/12/14 12:26:25;;;;;;;18.23;10.85;;;;;;;8.52;76.34;100745.19;4989146;28;20121;-76